METAR Data
IDs: Format: Raw Decoded Include TAF

Data at: 1118 UTC 28 Sep 2021

KMIC 281053Z AUTO 15008KT 10SM CLR 14/11 A2992 RMK AO2 SLP130 T01390106